Ocklawaha, Florida
Current Conditions -  °F | °C
As of 11:08 PM on Tuesday 25 Nov 2014 (Local Time) from KLEE Reporting Station
Light Rain Light Rain  
Wind Chill: 69°   Ceiling: 500
Heat Index: 69°   Visibility: 10mi
Dew Point: 68°   Wind: 6mph
Humidity: 96%   Direction: 130°SE
Pressure: 29.86"   Gusts: NA
Location:  29.07°N, 81.91°W
Report Text: KLEE 260408Z AUTO 13005KT 10SM -RA OVC005 21/20 A2986 RMK AO2 LTG DSNT E AND SE P0000 T02060200
Loading
Personal Weather Stations






























Interactive Weather Map New forecast layout! Learn more

10-Day Weather Forecast

Advertisements
Track Severe Weather on mobile